createdAt,value
2018-10-06T00:04:31.429Z,9.30
2018-10-06T00:09:36.282Z,9.20
2018-10-06T00:14:39.824Z,9.20
2018-10-06T00:19:43.373Z,9.10
2018-10-06T00:24:46.906Z,9.20
2018-10-06T00:29:50.618Z,9.10
2018-10-06T00:34:54.438Z,9.10
2018-10-06T00:39:58.091Z,9.20
2018-10-06T00:45:01.741Z,9.20
2018-10-06T00:50:05.296Z,9.30
2018-10-06T00:55:09.410Z,9.30
2018-10-06T01:00:13.224Z,9.30
2018-10-06T01:05:16.890Z,9.20
2018-10-06T01:10:20.420Z,9.20
2018-10-06T01:15:24.414Z,9.10
2018-10-06T01:20:28.315Z,9.10
2018-10-06T01:25:32.578Z,9.10
2018-10-06T01:30:36.207Z,9.20
2018-10-06T01:35:39.944Z,9.40
2018-10-06T01:40:43.842Z,9.40
2018-10-06T01:45:47.964Z,9.40
2018-10-06T01:50:51.673Z,9.50
2018-10-06T01:55:55.353Z,9.60
2018-10-06T02:00:59.260Z,9.70
2018-10-06T02:06:02.800Z,9.80
2018-10-06T02:11:06.630Z,9.80
2018-10-06T02:16:10.632Z,9.70
2018-10-06T02:21:14.453Z,9.50
2018-10-06T02:26:18.088Z,9.30
2018-10-06T02:36:33.809Z,9.00
2018-10-06T02:41:37.361Z,8.80
2018-10-06T02:46:42.280Z,8.70
2018-10-06T02:51:46.058Z,8.60
2018-10-06T02:56:50.151Z,8.50
2018-10-06T03:01:54.243Z,8.40
2018-10-06T03:06:58.372Z,8.30
2018-10-06T03:12:02.327Z,8.30
2018-10-06T03:17:06.009Z,8.40
2018-10-06T03:22:10.276Z,8.30
2018-10-06T03:27:14.760Z,8.20
2018-10-06T03:32:19.324Z,8.10
2018-10-06T03:37:23.482Z,8.10
2018-10-06T03:42:27.979Z,8.00
2018-10-06T03:47:31.572Z,7.90
2018-10-06T03:52:35.097Z,7.70
2018-10-06T03:57:38.923Z,7.60
2018-10-06T04:02:43.043Z,7.60
2018-10-06T04:07:47.524Z,7.60
2018-10-06T04:12:52.151Z,7.50
2018-10-06T04:17:56.037Z,7.40
2018-10-06T04:22:59.974Z,7.40
2018-10-06T04:28:03.807Z,7.40
2018-10-06T04:33:08.066Z,7.40
2018-10-06T04:38:12.216Z,7.50
2018-10-06T04:43:16.443Z,7.60
2018-10-06T04:48:20.268Z,7.60
2018-10-06T04:53:23.905Z,7.50
2018-10-06T04:58:27.667Z,7.30
2018-10-06T05:03:31.554Z,7.20
2018-10-06T05:08:35.058Z,7.10
2018-10-06T05:13:38.670Z,7.00
2018-10-06T05:18:42.617Z,7.00
2018-10-06T05:23:47.628Z,7.00
2018-10-06T05:28:51.311Z,7.00
2018-10-06T05:33:54.998Z,7.00
2018-10-06T05:38:58.601Z,7.00
2018-10-06T05:44:02.287Z,7.00
2018-10-06T05:49:05.940Z,7.10
2018-10-06T05:54:12.162Z,7.20
2018-10-06T05:59:16.976Z,7.40
2018-10-06T06:04:20.802Z,7.60
2018-10-06T06:09:24.605Z,7.80
2018-10-06T06:14:28.446Z,8.10
2018-10-06T06:19:33.201Z,8.30
2018-10-06T06:24:37.456Z,8.60
2018-10-06T06:29:42.265Z,9.30
2018-10-06T06:34:46.805Z,9.90
2018-10-06T06:39:50.372Z,10.30
2018-10-06T06:44:54.396Z,10.80
2018-10-06T06:49:58.033Z,11.60
2018-10-06T06:55:02.257Z,13.50
2018-10-06T07:00:06.135Z,16.50
2018-10-06T07:05:10.289Z,18.80
2018-10-06T07:10:14.243Z,18.30
2018-10-06T07:15:18.280Z,17.50
2018-10-06T07:20:22.256Z,17.20
2018-10-06T07:25:25.832Z,17.90
2018-10-06T07:30:29.418Z,21.20
2018-10-06T07:35:33.074Z,23.30
2018-10-06T07:40:36.799Z,25.40
2018-10-06T07:45:40.842Z,27.90
2018-10-06T07:50:45.353Z,28.60
2018-10-06T07:55:50.254Z,26.10
2018-10-06T08:00:55.012Z,23.20
2018-10-06T08:05:58.740Z,22.90
2018-10-06T08:11:02.334Z,25.40
2018-10-06T08:16:05.843Z,25.80
2018-10-06T08:21:09.539Z,23.40
2018-10-06T08:26:13.447Z,21.70
2018-10-06T08:31:17.715Z,20.50
2018-10-06T08:36:21.495Z,20.10
2018-10-06T08:41:25.417Z,19.80
2018-10-06T08:46:29.499Z,19.60
2018-10-06T08:51:33.188Z,19.20
2018-10-06T08:56:36.925Z,18.50
2018-10-06T09:01:40.452Z,18.60
2018-10-06T09:06:44.771Z,18.70
2018-10-06T09:11:49.172Z,18.50
2018-10-06T09:16:53.222Z,18.60
2018-10-06T09:21:57.320Z,18.90
2018-10-06T09:27:01.425Z,19.40
2018-10-06T09:32:05.217Z,19.90
2018-10-06T09:37:08.746Z,21.30
2018-10-06T09:42:12.393Z,22.80
2018-10-06T09:47:15.919Z,22.50
2018-10-06T09:52:19.693Z,21.90
2018-10-06T09:57:23.706Z,21.50
2018-10-06T10:02:32.834Z,21.40
2018-10-06T10:07:36.738Z,21.40
2018-10-06T10:12:40.553Z,21.40
2018-10-06T10:17:44.338Z,21.30
2018-10-06T10:22:48.209Z,21.30
2018-10-06T10:27:51.852Z,21.60
2018-10-06T10:32:55.397Z,22.10
2018-10-06T10:37:58.914Z,23.70
2018-10-06T10:43:02.429Z,24.30
2018-10-06T10:48:06.348Z,24.10
2018-10-06T10:53:09.831Z,24.30
2018-10-06T10:58:13.309Z,23.70
2018-10-06T11:03:16.772Z,23.30
2018-10-06T11:08:20.889Z,23.00
2018-10-06T11:13:24.420Z,23.10
2018-10-06T11:18:28.173Z,23.30
2018-10-06T11:23:31.735Z,23.30
2018-10-06T11:28:35.372Z,23.20
2018-10-06T11:33:39.242Z,23.30
2018-10-06T11:38:43.401Z,23.80
2018-10-06T11:43:47.337Z,24.40
2018-10-06T11:48:51.314Z,24.70
2018-10-06T11:53:54.982Z,24.60
2018-10-06T11:58:58.470Z,24.40
2018-10-06T12:04:02.098Z,24.40
2018-10-06T12:09:07.690Z,25.30
2018-10-06T12:14:11.784Z,25.80
2018-10-06T12:19:15.700Z,26.10
2018-10-06T12:24:19.673Z,25.60
2018-10-06T12:29:23.154Z,25.60
2018-10-06T12:34:26.653Z,26.40
2018-10-06T12:39:30.184Z,26.60
2018-10-06T12:44:33.713Z,26.20
2018-10-06T12:49:37.305Z,26.30
2018-10-06T12:54:41.203Z,26.50
2018-10-06T12:59:44.723Z,26.50
2018-10-06T13:04:48.243Z,26.00
2018-10-06T13:09:51.989Z,25.70
2018-10-06T13:14:55.507Z,25.20
2018-10-06T13:19:59.072Z,24.80
2018-10-06T13:25:03.036Z,24.60
2018-10-06T13:30:06.796Z,24.40
2018-10-06T13:35:10.840Z,24.50
2018-10-06T13:40:14.680Z,24.30
2018-10-06T13:45:18.778Z,24.10
2018-10-06T13:50:22.622Z,23.90
2018-10-06T13:55:26.332Z,23.80
2018-10-06T14:00:29.816Z,23.70
2018-10-06T14:05:33.453Z,23.60
2018-10-06T14:10:37.128Z,23.40
2018-10-06T14:15:40.664Z,23.30
2018-10-06T14:20:44.692Z,23.20
2018-10-06T14:25:49.174Z,23.00
2018-10-06T14:30:52.963Z,22.90
2018-10-06T14:35:56.663Z,22.80
2018-10-06T14:41:01.440Z,22.60
2018-10-06T14:46:04.955Z,22.50
2018-10-06T14:51:08.426Z,22.40
2018-10-06T14:56:12.019Z,22.40
2018-10-06T15:01:15.529Z,22.50
2018-10-06T15:06:19.633Z,22.50
2018-10-06T15:11:23.890Z,22.60
2018-10-06T15:16:27.808Z,23.00
2018-10-06T15:21:31.386Z,23.30
2018-10-06T15:26:34.917Z,23.10
2018-10-06T15:31:38.382Z,22.70
2018-10-06T15:36:41.949Z,22.50
2018-10-06T15:41:45.518Z,22.20
2018-10-06T15:46:49.728Z,21.90
2018-10-06T15:51:53.509Z,22.00
2018-10-06T15:56:58.010Z,22.00
2018-10-06T16:02:02.871Z,21.90
2018-10-06T16:07:07.365Z,21.80
2018-10-06T16:12:12.014Z,21.60
2018-10-06T16:17:16.102Z,21.40
2018-10-06T16:22:21.756Z,21.10
2018-10-06T16:27:27.167Z,20.80
2018-10-06T16:32:31.253Z,20.50
2018-10-06T16:37:35.373Z,20.20
2018-10-06T16:42:40.099Z,19.80
2018-10-06T16:47:44.883Z,19.30
2018-10-06T16:52:49.275Z,18.80
2018-10-06T16:57:53.450Z,18.30
2018-10-06T17:02:57.705Z,17.90
2018-10-06T17:08:03.264Z,17.50
2018-10-06T17:13:07.924Z,17.10
2018-10-06T17:18:12.244Z,16.80
2018-10-06T17:23:16.970Z,16.50
2018-10-06T17:28:21.297Z,16.30
2018-10-06T17:33:25.624Z,16.10
2018-10-06T17:38:30.145Z,16.00
2018-10-06T17:43:34.344Z,15.90
2018-10-06T17:48:38.514Z,16.00
2018-10-06T17:53:43.283Z,16.10
2018-10-06T17:58:47.604Z,16.20
2018-10-06T18:03:52.343Z,16.20
2018-10-06T18:08:56.492Z,16.40
2018-10-06T18:14:02.018Z,16.40
2018-10-06T18:19:06.479Z,16.40
2018-10-06T18:24:10.682Z,16.20
2018-10-06T18:29:15.584Z,16.10
2018-10-06T18:34:19.632Z,16.00
2018-10-06T18:39:23.784Z,15.90
2018-10-06T18:44:28.294Z,15.80
2018-10-06T18:49:32.523Z,15.80
2018-10-06T18:54:37.255Z,15.80
2018-10-06T18:59:41.357Z,15.80
2018-10-06T19:04:45.646Z,15.70
2018-10-06T19:09:50.185Z,15.60
2018-10-06T19:14:54.422Z,15.40
2018-10-06T19:19:58.878Z,15.40
2018-10-06T19:25:03.446Z,15.30
2018-10-06T19:30:07.641Z,15.20
2018-10-06T19:35:11.819Z,15.20
2018-10-06T19:40:16.603Z,15.10
2018-10-06T19:45:21.551Z,15.00
2018-10-06T19:50:25.976Z,14.90
2018-10-06T19:55:30.257Z,14.90
2018-10-06T20:00:34.583Z,14.80
2018-10-06T20:05:39.136Z,14.60
2018-10-06T20:10:43.516Z,14.50
2018-10-06T20:15:49.764Z,14.50
2018-10-06T20:20:54.106Z,14.30
2018-10-06T20:25:58.726Z,14.40
2018-10-06T20:31:02.856Z,14.30
2018-10-06T20:36:07.286Z,14.30
2018-10-06T20:41:12.195Z,14.20
2018-10-06T20:46:16.912Z,14.10
2018-10-06T20:51:21.483Z,14.10
2018-10-06T20:56:25.874Z,14.00
2018-10-06T21:01:30.256Z,13.90
2018-10-06T21:06:34.790Z,13.80
2018-10-06T21:11:39.137Z,13.70
2018-10-06T21:16:43.407Z,13.60
2018-10-06T21:21:47.490Z,13.60
2018-10-06T21:26:51.796Z,13.60
2018-10-06T21:31:56.144Z,13.70
2018-10-06T21:37:00.785Z,13.70
2018-10-06T21:42:04.930Z,13.90
2018-10-06T21:47:09.512Z,13.90
2018-10-06T21:52:13.600Z,13.80
2018-10-06T21:57:18.241Z,13.70
2018-10-06T22:02:22.692Z,13.70
2018-10-06T22:07:27.010Z,13.70
2018-10-06T22:12:31.089Z,13.70
2018-10-06T22:17:35.306Z,13.70
2018-10-06T22:22:39.524Z,13.80
2018-10-06T22:27:44.221Z,13.90
2018-10-06T22:32:48.623Z,13.90
2018-10-06T22:37:53.170Z,13.80
2018-10-06T22:42:57.325Z,13.70
2018-10-06T22:48:01.474Z,13.60
2018-10-06T22:53:05.737Z,13.40
2018-10-06T22:58:10.830Z,13.30
2018-10-06T23:03:15.505Z,13.30
2018-10-06T23:08:19.592Z,13.30
2018-10-06T23:13:24.517Z,13.30
2018-10-06T23:18:29.653Z,13.10
2018-10-06T23:23:33.849Z,12.90
2018-10-06T23:28:38.084Z,12.60
2018-10-06T23:33:42.245Z,12.40
2018-10-06T23:38:46.946Z,12.20
2018-10-06T23:43:51.412Z,12.00
2018-10-06T23:48:56.314Z,11.80
2018-10-06T23:54:00.391Z,11.70
2018-10-06T23:59:05.047Z,11.70
